< < Back
Terminal Aerodrome Forecast


Current Version              Previous Versions:   1  2  3  4  5  6  7  8  9  

Terminal Aerodrome Forecast

305
FTUS42 KGSP 061133
TAFGSP
TAF
KGSP 061133Z 0612/0712 34009KT P6SM SKC
     FM061500 34014G23KT P6SM FEW050 SCT250
     FM070000 29006KT P6SM FEW250=

Latest METAR

551
SAUS70 KWBC 061300 RRI
MTRGSP
METAR KGSP 061253Z 35009G17KT 10SM FEW110 15/04 A2983 RMK AO2 SLP095
T01500044


USA.gov is the U.S. government's official web portal to all federal, state and local government web resources and services.